sensor_id;sensor_type;location;lat;lon;timestamp;pressure;altitude;pressure_sealevel;temperature;humidity
20115;BME280;10218;42.874;25.320;2022-12-26T00:00:59;98163.22;;;3.07;100.00
20115;BME280;10218;42.874;25.320;2022-12-26T00:03:27;98168.62;;;2.79;100.00
20115;BME280;10218;42.874;25.320;2022-12-26T00:05:56;98161.38;;;2.95;100.00
20115;BME280;10218;42.874;25.320;2022-12-26T00:08:23;98173.75;;;2.94;100.00
20115;BME280;10218;42.874;25.320;2022-12-26T00:10:50;98185.09;;;2.82;100.00
20115;BME280;10218;42.874;25.320;2022-12-26T00:13:17;98191.16;;;2.84;100.00
20115;BME280;10218;42.874;25.320;2022-12-26T00:15:44;98196.41;;;3.11;100.00
20115;BME280;10218;42.874;25.320;2022-12-26T00:18:11;98197.84;;;3.03;100.00
20115;BME280;10218;42.874;25.320;2022-12-26T00:20:38;98187.53;;;3.12;100.00
20115;BME280;10218;42.874;25.320;2022-12-26T00:23:05;98186.59;;;3.13;100.00
20115;BME280;10218;42.874;25.320;2022-12-26T00:25:33;98189.97;;;3.15;100.00
20115;BME280;10218;42.874;25.320;2022-12-26T00:28:00;98197.88;;;3.15;100.00
20115;BME280;10218;42.874;25.320;2022-12-26T00:30:27;98199.69;;;2.88;100.00
20115;BME280;10218;42.874;25.320;2022-12-26T00:32:56;98203.88;;;2.78;100.00
20115;BME280;10218;42.874;25.320;2022-12-26T00:35:23;98209.16;;;2.78;100.00
20115;BME280;10218;42.874;25.320;2022-12-26T00:37:50;98208.09;;;2.80;100.00
20115;BME280;10218;42.874;25.320;2022-12-26T00:40:17;98210.94;;;2.77;100.00
20115;BME280;10218;42.874;25.320;2022-12-26T00:42:44;98198.62;;;2.90;100.00
20115;BME280;10218;42.874;25.320;2022-12-26T00:45:11;98188.53;;;2.97;100.00
20115;BME280;10218;42.874;25.320;2022-12-26T00:47:38;98192.28;;;3.07;100.00
20115;BME280;10218;42.874;25.320;2022-12-26T00:50:05;98196.38;;;2.98;100.00
20115;BME280;10218;42.874;25.320;2022-12-26T00:52:32;98196.97;;;2.89;100.00
20115;BME280;10218;42.874;25.320;2022-12-26T00:55:00;98205.88;;;3.01;100.00
20115;BME280;10218;42.874;25.320;2022-12-26T00:57:27;98198.38;;;2.81;100.00
20115;BME280;10218;42.874;25.320;2022-12-26T00:59:53;98192.38;;;2.79;100.00
20115;BME280;10218;42.874;25.320;2022-12-26T01:02:21;98202.44;;;2.86;100.00
20115;BME280;10218;42.874;25.320;2022-12-26T01:05:08;98202.87;;;2.93;100.00
20115;BME280;10218;42.874;25.320;2022-12-26T01:07:37;98208.53;;;2.60;100.00
20115;BME280;10218;42.874;25.320;2022-12-26T01:10:05;98211.09;;;2.88;100.00
20115;BME280;10218;42.874;25.320;2022-12-26T01:12:33;98202.78;;;2.68;100.00
20115;BME280;10218;42.874;25.320;2022-12-26T01:15:01;98202.69;;;2.55;100.00
20115;BME280;10218;42.874;25.320;2022-12-26T01:17:28;98199.19;;;2.69;100.00
20115;BME280;10218;42.874;25.320;2022-12-26T01:19:56;98194.34;;;2.75;100.00
20115;BME280;10218;42.874;25.320;2022-12-26T01:22:24;98194.09;;;2.66;100.00
20115;BME280;10218;42.874;25.320;2022-12-26T01:24:56;98189.00;;;3.04;100.00
20115;BME280;10218;42.874;25.320;2022-12-26T01:27:24;98189.94;;;3.03;100.00
20115;BME280;10218;42.874;25.320;2022-12-26T01:29:52;98174.91;;;3.30;100.00
20115;BME280;10218;42.874;25.320;2022-12-26T01:32:19;98162.50;;;2.78;100.00
20115;BME280;10218;42.874;25.320;2022-12-26T01:34:47;98160.75;;;2.91;100.00
20115;BME280;10218;42.874;25.320;2022-12-26T01:37:15;98166.09;;;2.77;100.00
20115;BME280;10218;42.874;25.320;2022-12-26T01:39:42;98171.37;;;3.94;100.00
20115;BME280;10218;42.874;25.320;2022-12-26T01:42:14;98161.31;;;4.48;100.00
20115;BME280;10218;42.874;25.320;2022-12-26T01:50:16;98157.94;;;3.59;100.00
20115;BME280;10218;42.874;25.320;2022-12-26T01:52:46;98161.84;;;3.54;100.00
20115;BME280;10218;42.874;25.320;2022-12-26T01:55:16;98169.09;;;3.25;100.00
20115;BME280;10218;42.874;25.320;2022-12-26T01:57:49;98169.88;;;2.73;100.00
20115;BME280;10218;42.874;25.320;2022-12-26T02:00:19;98174.31;;;2.73;100.00
20115;BME280;10218;42.874;25.320;2022-12-26T02:02:47;98166.41;;;2.85;100.00
20115;BME280;10218;42.874;25.320;2022-12-26T02:05:51;98178.13;;;2.81;100.00
20115;BME280;10218;42.874;25.320;2022-12-26T02:08:21;98182.69;;;2.65;100.00
20115;BME280;10218;42.874;25.320;2022-12-26T02:10:54;98189.88;;;2.63;100.00
20115;BME280;10218;42.874;25.320;2022-12-26T02:13:22;98189.31;;;2.44;100.00
20115;BME280;10218;42.874;25.320;2022-12-26T02:15:50;98184.47;;;2.65;100.00
20115;BME280;10218;42.874;25.320;2022-12-26T02:18:17;98191.59;;;2.64;100.00
20115;BME280;10218;42.874;25.320;2022-12-26T02:21:02;98196.84;;;2.64;100.00
20115;BME280;10218;42.874;25.320;2022-12-26T02:29:19;98211.66;;;2.52;100.00
20115;BME280;10218;42.874;25.320;2022-12-26T02:35:14;98224.34;;;2.60;100.00
20115;BME280;10218;42.874;25.320;2022-12-26T02:52:30;98177.97;;;3.24;100.00
20115;BME280;10218;42.874;25.320;2022-12-26T02:55:27;98164.16;;;3.06;100.00
20115;BME280;10218;42.874;25.320;2022-12-26T02:58:23;98162.50;;;2.78;100.00
20115;BME280;10218;42.874;25.320;2022-12-26T03:01:22;98164.63;;;2.86;100.00
20115;BME280;10218;42.874;25.320;2022-12-26T03:04:13;98157.94;;;2.94;100.00
20115;BME280;10218;42.874;25.320;2022-12-26T03:07:03;98148.44;;;3.05;100.00
20115;BME280;10218;42.874;25.320;2022-12-26T03:09:53;98147.22;;;3.23;100.00
20115;BME280;10218;42.874;25.320;2022-12-26T03:12:51;98162.13;;;3.36;100.00
20115;BME280;10218;42.874;25.320;2022-12-26T03:16:01;98163.38;;;3.18;100.00
20115;BME280;10218;42.874;25.320;2022-12-26T03:18:55;98167.06;;;2.62;100.00
20115;BME280;10218;42.874;25.320;2022-12-26T03:21:29;98165.84;;;2.68;100.00
20115;BME280;10218;42.874;25.320;2022-12-26T03:23:59;98162.41;;;2.53;100.00
20115;BME280;10218;42.874;25.320;2022-12-26T03:26:38;98155.41;;;2.52;100.00
20115;BME280;10218;42.874;25.320;2022-12-26T03:29:20;98163.87;;;2.57;100.00
20115;BME280;10218;42.874;25.320;2022-12-26T03:32:10;98167.59;;;2.40;100.00
20115;BME280;10218;42.874;25.320;2022-12-26T03:34:41;98167.13;;;2.34;100.00
20115;BME280;10218;42.874;25.320;2022-12-26T03:37:49;98163.94;;;2.29;100.00
20115;BME280;10218;42.874;25.320;2022-12-26T03:46:52;98152.19;;;2.61;100.00
20115;BME280;10218;42.874;25.320;2022-12-26T03:49:45;98137.84;;;2.65;100.00
20115;BME280;10218;42.874;25.320;2022-12-26T03:52:55;98125.06;;;3.38;100.00
20115;BME280;10218;42.874;25.320;2022-12-26T03:56:11;98125.37;;;3.46;100.00
20115;BME280;10218;42.874;25.320;2022-12-26T03:59:09;98110.91;;;3.52;100.00
20115;BME280;10218;42.874;25.320;2022-12-26T04:02:02;98113.22;;;3.43;100.00
20115;BME280;10218;42.874;25.320;2022-12-26T04:04:51;98108.38;;;3.50;100.00
20115;BME280;10218;42.874;25.320;2022-12-26T04:07:47;98119.25;;;3.58;100.00
20115;BME280;10218;42.874;25.320;2022-12-26T04:10:43;98116.19;;;3.64;100.00
20115;BME280;10218;42.874;25.320;2022-12-26T04:23:16;98147.56;;;2.65;100.00
20115;BME280;10218;42.874;25.320;2022-12-26T04:26:09;98152.56;;;2.69;100.00
20115;BME280;10218;42.874;25.320;2022-12-26T04:28:57;98163.81;;;2.44;100.00
20115;BME280;10218;42.874;25.320;2022-12-26T04:31:49;98167.59;;;2.40;100.00
20115;BME280;10218;42.874;25.320;2022-12-26T04:34:43;98165.72;;;2.42;100.00
20115;BME280;10218;42.874;25.320;2022-12-26T04:37:33;98164.06;;;2.54;100.00
20115;BME280;10218;42.874;25.320;2022-12-26T04:40:23;98154.50;;;2.39;100.00
20115;BME280;10218;42.874;25.320;2022-12-26T04:43:11;98164.13;;;2.26;100.00
20115;BME280;10218;42.874;25.320;2022-12-26T04:45:59;98173.88;;;2.52;100.00
20115;BME280;10218;42.874;25.320;2022-12-26T04:48:27;98171.94;;;2.95;100.00
20115;BME280;10218;42.874;25.320;2022-12-26T04:51:13;98179.66;;;3.25;100.00
20115;BME280;10218;42.874;25.320;2022-12-26T04:53:40;98173.00;;;3.32;100.00
20115;BME280;10218;42.874;25.320;2022-12-26T04:56:08;98167.72;;;2.92;100.00
20115;BME280;10218;42.874;25.320;2022-12-26T04:58:36;98169.44;;;2.93;100.00
20115;BME280;10218;42.874;25.320;2022-12-26T05:01:04;98174.56;;;3.22;100.00
20115;BME280;10218;42.874;25.320;2022-12-26T05:03:50;98169.00;;;3.39;100.00
20115;BME280;10218;42.874;25.320;2022-12-26T05:06:36;98172.94;;;3.07;100.00
20115;BME280;10218;42.874;25.320;2022-12-26T05:09:22;98163.50;;;2.63;100.00
20115;BME280;10218;42.874;25.320;2022-12-26T05:12:08;98160.41;;;2.83;100.00
20115;BME280;10218;42.874;25.320;2022-12-26T05:14:36;98155.28;;;2.94;100.00
20115;BME280;10218;42.874;25.320;2022-12-26T05:17:06;98156.37;;;2.78;100.00
20115;BME280;10218;42.874;25.320;2022-12-26T05:19:53;98154.53;;;2.92;100.00
20115;BME280;10218;42.874;25.320;2022-12-26T05:22:40;98161.06;;;2.87;100.00
20115;BME280;10218;42.874;25.320;2022-12-26T05:25:34;98157.50;;;3.00;100.00
20115;BME280;10218;42.874;25.320;2022-12-26T05:28:21;98165.97;;;3.06;100.00
20115;BME280;10218;42.874;25.320;2022-12-26T05:31:13;98169.66;;;2.76;100.00
20115;BME280;10218;42.874;25.320;2022-12-26T05:33:40;98168.91;;;2.47;100.00
20115;BME280;10218;42.874;25.320;2022-12-26T05:36:29;98174.56;;;2.41;100.00
20115;BME280;10218;42.874;25.320;2022-12-26T05:38:57;98172.69;;;2.43;100.00
20115;BME280;10218;42.874;25.320;2022-12-26T05:41:24;98178.47;;;2.63;100.00
20115;BME280;10218;42.874;25.320;2022-12-26T05:43:51;98171.94;;;2.41;100.00
20115;BME280;10218;42.874;25.320;2022-12-26T05:46:18;98181.44;;;2.30;100.00
20115;BME280;10218;42.874;25.320;2022-12-26T05:48:45;98172.06;;;2.11;100.00
20115;BME280;10218;42.874;25.320;2022-12-26T05:51:13;98169.88;;;2.04;100.00
20115;BME280;10218;42.874;25.320;2022-12-26T05:53:40;98170.19;;;1.99;100.00
20115;BME280;10218;42.874;25.320;2022-12-26T05:56:12;98165.16;;;2.37;100.00
20115;BME280;10218;42.874;25.320;2022-12-26T05:58:40;98174.63;;;2.54;100.00
20115;BME280;10218;42.874;25.320;2022-12-26T06:01:16;98168.66;;;2.38;100.00
20115;BME280;10218;42.874;25.320;2022-12-26T06:03:49;98164.94;;;3.21;100.00
20115;BME280;10218;42.874;25.320;2022-12-26T06:06:17;98165.63;;;2.71;100.00
20115;BME280;10218;42.874;25.320;2022-12-26T06:08:49;98157.16;;;2.66;100.00
20115;BME280;10218;42.874;25.320;2022-12-26T06:11:18;98167.66;;;3.07;100.00
20115;BME280;10218;42.874;25.320;2022-12-26T06:13:46;98176.88;;;2.60;100.00
20115;BME280;10218;42.874;25.320;2022-12-26T06:16:15;98168.19;;;2.99;100.00
20115;BME280;10218;42.874;25.320;2022-12-26T06:18:42;98170.88;;;3.24;100.00
20115;BME280;10218;42.874;25.320;2022-12-26T06:21:13;98169.88;;;3.39;100.00
20115;BME280;10218;42.874;25.320;2022-12-26T06:23:40;98178.53;;;3.54;100.00
20115;BME280;10218;42.874;25.320;2022-12-26T06:26:08;98181.03;;;3.30;100.00
20115;BME280;10218;42.874;25.320;2022-12-26T06:28:36;98183.06;;;2.73;100.00
20115;BME280;10218;42.874;25.320;2022-12-26T06:31:06;98180.44;;;2.73;100.00
20115;BME280;10218;42.874;25.320;2022-12-26T06:33:33;98186.47;;;2.61;100.00
20115;BME280;10218;42.874;25.320;2022-12-26T06:38:32;98187.53;;;3.12;100.00
20115;BME280;10218;42.874;25.320;2022-12-26T06:40:59;98189.69;;;3.20;100.00
20115;BME280;10218;42.874;25.320;2022-12-26T06:43:26;98193.47;;;2.89;100.00
20115;BME280;10218;42.874;25.320;2022-12-26T06:45:57;98200.31;;;2.79;100.00
20115;BME280;10218;42.874;25.320;2022-12-26T06:48:25;98192.34;;;2.93;100.00
20115;BME280;10218;42.874;25.320;2022-12-26T06:50:52;98181.16;;;3.02;100.00
20115;BME280;10218;42.874;25.320;2022-12-26T06:53:23;98186.91;;;3.09;100.00
20115;BME280;10218;42.874;25.320;2022-12-26T06:55:50;98193.72;;;3.38;100.00
20115;BME280;10218;42.874;25.320;2022-12-26T06:58:18;98191.03;;;3.65;100.00
20115;BME280;10218;42.874;25.320;2022-12-26T07:00:45;98181.28;;;5.36;100.00
20115;BME280;10218;42.874;25.320;2022-12-26T07:03:12;98164.94;;;5.42;100.00
20115;BME280;10218;42.874;25.320;2022-12-26T07:05:39;98171.81;;;6.69;100.00
20115;BME280;10218;42.874;25.320;2022-12-26T07:08:06;98164.50;;;7.78;100.00
20115;BME280;10218;42.874;25.320;2022-12-26T07:10:34;98172.84;;;8.14;100.00
20115;BME280;10218;42.874;25.320;2022-12-26T07:13:03;98180.06;;;9.13;100.00
20115;BME280;10218;42.874;25.320;2022-12-26T07:15:30;98176.44;;;9.43;100.00
20115;BME280;10218;42.874;25.320;2022-12-26T07:17:57;98179.53;;;9.48;100.00
20115;BME280;10218;42.874;25.320;2022-12-26T07:20:24;98173.31;;;9.76;93.28
20115;BME280;10218;42.874;25.320;2022-12-26T07:22:51;98183.94;;;10.15;88.37
20115;BME280;10218;42.874;25.320;2022-12-26T07:25:19;98178.50;;;10.53;77.04
20115;BME280;10218;42.874;25.320;2022-12-26T07:27:46;98182.72;;;9.80;84.27
20115;BME280;10218;42.874;25.320;2022-12-26T07:30:13;98183.53;;;10.84;72.90
20115;BME280;10218;42.874;25.320;2022-12-26T07:32:40;98186.69;;;11.95;66.46
20115;BME280;10218;42.874;25.320;2022-12-26T07:35:08;98189.78;;;14.49;53.27
20115;BME280;10218;42.874;25.320;2022-12-26T07:37:35;98197.88;;;13.84;53.19
20115;BME280;10218;42.874;25.320;2022-12-26T07:40:02;98185.69;;;11.96;58.91
20115;BME280;10218;42.874;25.320;2022-12-26T07:42:30;98186.59;;;13.48;56.52
20115;BME280;10218;42.874;25.320;2022-12-26T07:44:57;98188.97;;;12.33;59.29
20115;BME280;10218;42.874;25.320;2022-12-26T07:47:24;98197.78;;;12.85;56.36
20115;BME280;10218;42.874;25.320;2022-12-26T07:49:51;98194.69;;;12.64;58.45
20115;BME280;10218;42.874;25.320;2022-12-26T07:52:18;98185.56;;;13.33;55.73
20115;BME280;10218;42.874;25.320;2022-12-26T07:54:46;98181.00;;;13.17;56.64
20115;BME280;10218;42.874;25.320;2022-12-26T07:57:13;98190.28;;;14.52;52.95
20115;BME280;10218;42.874;25.320;2022-12-26T08:00:00;98185.91;;;12.96;57.76
20115;BME280;10218;42.874;25.320;2022-12-26T08:02:37;98190.28;;;13.39;55.69
20115;BME280;10218;42.874;25.320;2022-12-26T08:05:05;98186.19;;;12.77;57.72
20115;BME280;10218;42.874;25.320;2022-12-26T08:07:32;98184.31;;;11.92;64.33
20115;BME280;10218;42.874;25.320;2022-12-26T08:09:59;98185.59;;;13.82;54.71
20115;BME280;10218;42.874;25.320;2022-12-26T08:12:26;98189.81;;;14.17;54.75
20115;BME280;10218;42.874;25.320;2022-12-26T08:14:53;98185.94;;;14.90;53.66
20115;BME280;10218;42.874;25.320;2022-12-26T08:17:20;98188.63;;;16.20;49.15
20115;BME280;10218;42.874;25.320;2022-12-26T08:19:48;98196.66;;;16.29;48.49
20115;BME280;10218;42.874;25.320;2022-12-26T08:22:15;98189.31;;;19.08;43.89
20115;BME280;10218;42.874;25.320;2022-12-26T08:24:42;98179.16;;;17.78;43.83
20115;BME280;10218;42.874;25.320;2022-12-26T08:27:09;98179.81;;;16.93;45.29
20115;BME280;10218;42.874;25.320;2022-12-26T08:29:36;98160.66;;;15.61;47.54
20115;BME280;10218;42.874;25.320;2022-12-26T08:32:04;98168.72;;;15.08;49.92
20115;BME280;10218;42.874;25.320;2022-12-26T08:34:35;98164.72;;;14.95;50.89
20115;BME280;10218;42.874;25.320;2022-12-26T08:37:02;98151.72;;;15.38;50.07
20115;BME280;10218;42.874;25.320;2022-12-26T08:39:29;98148.53;;;17.92;46.27
20115;BME280;10218;42.874;25.320;2022-12-26T08:41:56;98144.06;;;16.62;47.00
20115;BME280;10218;42.874;25.320;2022-12-26T08:44:23;98140.13;;;17.08;46.19
20115;BME280;10218;42.874;25.320;2022-12-26T08:46:52;98132.31;;;16.25;48.24
20115;BME280;10218;42.874;25.320;2022-12-26T08:49:19;98137.44;;;19.72;43.00
20115;BME280;10218;42.874;25.320;2022-12-26T08:51:47;98138.16;;;18.86;42.63
20115;BME280;10218;42.874;25.320;2022-12-26T08:54:14;98135.66;;;16.57;47.45
20115;BME280;10218;42.874;25.320;2022-12-26T08:56:41;98129.22;;;15.76;49.67
20115;BME280;10218;42.874;25.320;2022-12-26T08:59:08;98136.84;;;18.75;46.11
20115;BME280;10218;42.874;25.320;2022-12-26T09:01:35;98136.00;;;20.42;40.26
20115;BME280;10218;42.874;25.320;2022-12-26T09:04:03;98125.47;;;22.05;37.43
20115;BME280;10218;42.874;25.320;2022-12-26T09:06:35;98127.06;;;20.35;39.52
20115;BME280;10218;42.874;25.320;2022-12-26T09:09:04;98137.00;;;22.32;37.48
20115;BME280;10218;42.874;25.320;2022-12-26T09:11:32;98127.75;;;20.95;38.90
20115;BME280;10218;42.874;25.320;2022-12-26T09:14:01;98133.91;;;20.18;39.31
20115;BME280;10218;42.874;25.320;2022-12-26T09:16:34;98129.12;;;20.46;39.52
20115;BME280;10218;42.874;25.320;2022-12-26T09:19:05;98127.59;;;20.76;38.74
20115;BME280;10218;42.874;25.320;2022-12-26T09:21:32;98118.63;;;21.65;37.81
20115;BME280;10218;42.874;25.320;2022-12-26T09:24:02;98121.13;;;22.47;35.68
20115;BME280;10218;42.874;25.320;2022-12-26T09:26:30;98121.28;;;21.40;37.18
20115;BME280;10218;42.874;25.320;2022-12-26T09:28:57;98123.44;;;18.54;43.05
20115;BME280;10218;42.874;25.320;2022-12-26T09:31:29;98116.09;;;20.81;40.62
20115;BME280;10218;42.874;25.320;2022-12-26T09:33:57;98103.41;;;20.62;39.91
20115;BME280;10218;42.874;25.320;2022-12-26T09:36:28;98095.56;;;23.39;35.54
20115;BME280;10218;42.874;25.320;2022-12-26T09:38:56;98096.47;;;21.68;36.85
20115;BME280;10218;42.874;25.320;2022-12-26T09:44:28;98091.81;;;23.04;34.26
20115;BME280;10218;42.874;25.320;2022-12-26T09:50:02;98091.06;;;22.17;35.08
20115;BME280;10218;42.874;25.320;2022-12-26T09:52:37;98083.00;;;22.90;33.97
20115;BME280;10218;42.874;25.320;2022-12-26T09:57:59;98069.97;;;22.31;34.83
20115;BME280;10218;42.874;25.320;2022-12-26T10:00:33;98063.56;;;25.33;31.64
20115;BME280;10218;42.874;25.320;2022-12-26T10:03:03;98066.66;;;25.25;31.36
20115;BME280;10218;42.874;25.320;2022-12-26T10:05:37;98063.00;;;24.09;32.94
20115;BME280;10218;42.874;25.320;2022-12-26T10:11:10;98051.09;;;25.53;30.68
20115;BME280;10218;42.874;25.320;2022-12-26T10:13:49;98042.91;;;23.09;33.70
20115;BME280;10218;42.874;25.320;2022-12-26T10:16:32;98046.62;;;24.09;33.70
20115;BME280;10218;42.874;25.320;2022-12-26T10:19:23;98042.78;;;24.80;32.47
20115;BME280;10218;42.874;25.320;2022-12-26T10:24:38;98031.19;;;24.03;33.13
20115;BME280;10218;42.874;25.320;2022-12-26T10:27:13;98031.12;;;23.57;33.83
20115;BME280;10218;42.874;25.320;2022-12-26T10:29:49;98029.00;;;21.76;35.42
20115;BME280;10218;42.874;25.320;2022-12-26T10:32:32;98024.16;;;23.61;33.84
20115;BME280;10218;42.874;25.320;2022-12-26T10:35:32;98016.12;;;22.51;35.53
20115;BME280;10218;42.874;25.320;2022-12-26T10:38:18;98008.84;;;23.83;33.12
20115;BME280;10218;42.874;25.320;2022-12-26T10:40:53;98008.56;;;24.78;31.79
20115;BME280;10218;42.874;25.320;2022-12-26T10:43:31;98008.19;;;24.22;32.08
20115;BME280;10218;42.874;25.320;2022-12-26T10:48:35;98007.56;;;25.52;30.31
20115;BME280;10218;42.874;25.320;2022-12-26T10:51:03;98003.75;;;24.56;31.29
20115;BME280;10218;42.874;25.320;2022-12-26T10:53:41;97997.41;;;25.64;29.83
20115;BME280;10218;42.874;25.320;2022-12-26T10:56:10;97999.59;;;23.61;32.40
20115;BME280;10218;42.874;25.320;2022-12-26T10:58:40;97995.75;;;24.78;31.17
20115;BME280;10218;42.874;25.320;2022-12-26T11:04:16;97988.09;;;24.80;30.63
20115;BME280;10218;42.874;25.320;2022-12-26T11:06:50;97991.06;;;25.97;28.61
20115;BME280;10218;42.874;25.320;2022-12-26T11:09:38;97986.91;;;26.66;27.44
20115;BME280;10218;42.874;25.320;2022-12-26T11:15:05;97984.13;;;25.73;28.72
20115;BME280;10218;42.874;25.320;2022-12-26T11:17:40;97976.97;;;23.30;30.85
20115;BME280;10218;42.874;25.320;2022-12-26T11:22:36;97977.19;;;24.92;29.95
20115;BME280;10218;42.874;25.320;2022-12-26T11:27:57;97983.13;;;26.94;26.56
20115;BME280;10218;42.874;25.320;2022-12-26T11:30:36;97985.06;;;26.17;26.86
20115;BME280;10218;42.874;25.320;2022-12-26T11:35:52;97984.69;;;25.91;27.20
20115;BME280;10218;42.874;25.320;2022-12-26T11:38:21;97973.50;;;25.93;27.83
20115;BME280;10218;42.874;25.320;2022-12-26T11:41:18;97963.09;;;25.28;27.93
20115;BME280;10218;42.874;25.320;2022-12-26T11:54:59;97970.94;;;27.60;25.96
20115;BME280;10218;42.874;25.320;2022-12-26T11:57:29;97967.72;;;27.15;26.51
20115;BME280;10218;42.874;25.320;2022-12-26T12:00:18;97964.19;;;25.44;28.33
20115;BME280;10218;42.874;25.320;2022-12-26T12:02:47;97956.63;;;24.14;29.46
20115;BME280;10218;42.874;25.320;2022-12-26T12:21:42;97975.94;;;24.59;28.81
20115;BME280;10218;42.874;25.320;2022-12-26T12:27:18;97987.88;;;24.30;28.95
20115;BME280;10218;42.874;25.320;2022-12-26T12:40:57;97983.69;;;23.28;29.50
20115;BME280;10218;42.874;25.320;2022-12-26T13:00:24;97960.19;;;19.47;35.15
20115;BME280;10218;42.874;25.320;2022-12-26T13:03:13;97949.78;;;18.03;38.10
20115;BME280;10218;42.874;25.320;2022-12-26T13:06:24;97953.19;;;18.24;37.49
20115;BME280;10218;42.874;25.320;2022-12-26T13:08:57;97961.50;;;17.82;38.74
20115;BME280;10218;42.874;25.320;2022-12-26T13:11:35;97961.72;;;17.31;39.85
20115;BME280;10218;42.874;25.320;2022-12-26T13:16:41;97953.91;;;16.58;41.09
20115;BME280;10218;42.874;25.320;2022-12-26T13:19:17;97950.09;;;16.02;41.64
20115;BME280;10218;42.874;25.320;2022-12-26T13:21:47;97965.69;;;16.21;42.01
20115;BME280;10218;42.874;25.320;2022-12-26T13:24:24;97959.69;;;16.70;41.71
20115;BME280;10218;42.874;25.320;2022-12-26T13:29:43;97967.78;;;16.70;41.42
20115;BME280;10218;42.874;25.320;2022-12-26T13:34:55;97968.22;;;16.08;43.02
20115;BME280;10218;42.874;25.320;2022-12-26T13:42:40;97971.38;;;15.97;43.56
20115;BME280;10218;42.874;25.320;2022-12-26T13:50:54;97980.38;;;15.60;46.45
20115;BME280;10218;42.874;25.320;2022-12-26T14:04:46;97984.88;;;14.84;49.84
20115;BME280;10218;42.874;25.320;2022-12-26T14:07:40;97987.31;;;14.40;50.14
20115;BME280;10218;42.874;25.320;2022-12-26T14:13:33;97982.31;;;14.37;55.57
20115;BME280;10218;42.874;25.320;2022-12-26T14:21:44;97986.59;;;13.60;66.01
20115;BME280;10218;42.874;25.320;2022-12-26T14:24:49;97978.72;;;12.78;77.98
20115;BME280;10218;42.874;25.320;2022-12-26T14:27:29;97991.78;;;12.97;79.12
20115;BME280;10218;42.874;25.320;2022-12-26T14:30:18;97992.97;;;12.95;78.82
20115;BME280;10218;42.874;25.320;2022-12-26T14:38:32;97998.63;;;12.67;74.56
20115;BME280;10218;42.874;25.320;2022-12-26T14:41:12;97993.88;;;12.45;78.49
20115;BME280;10218;42.874;25.320;2022-12-26T14:49:38;97999.69;;;11.82;78.06
20115;BME280;10218;42.874;25.320;2022-12-26T14:54:52;97990.06;;;11.72;80.14
20115;BME280;10218;42.874;25.320;2022-12-26T14:57:48;97997.13;;;11.73;81.26
20115;BME280;10218;42.874;25.320;2022-12-26T15:05:27;98002.53;;;11.11;100.00
20115;BME280;10218;42.874;25.320;2022-12-26T15:10:48;97998.25;;;11.01;100.00
20115;BME280;10218;42.874;25.320;2022-12-26T15:19:00;97996.81;;;10.89;100.00
20115;BME280;10218;42.874;25.320;2022-12-26T15:21:42;98001.28;;;10.35;100.00
20115;BME280;10218;42.874;25.320;2022-12-26T15:30:19;97996.16;;;10.24;100.00
20115;BME280;10218;42.874;25.320;2022-12-26T15:38:34;98004.41;;;9.66;100.00
20115;BME280;10218;42.874;25.320;2022-12-26T15:47:07;97996.56;;;9.65;100.00
20115;BME280;10218;42.874;25.320;2022-12-26T15:53:03;98001.53;;;9.31;100.00
20115;BME280;10218;42.874;25.320;2022-12-26T16:01:50;97997.94;;;9.13;100.00
20115;BME280;10218;42.874;25.320;2022-12-26T16:04:45;97993.47;;;8.84;100.00
20115;BME280;10218;42.874;25.320;2022-12-26T16:10:00;97996.72;;;8.97;100.00
20115;BME280;10218;42.874;25.320;2022-12-26T16:12:29;97994.59;;;8.91;100.00
20115;BME280;10218;42.874;25.320;2022-12-26T16:17:36;97998.09;;;8.53;100.00
20115;BME280;10218;42.874;25.320;2022-12-26T16:20:31;98001.59;;;8.54;100.00
20115;BME280;10218;42.874;25.320;2022-12-26T16:23:20;97979.31;;;8.36;100.00
20115;BME280;10218;42.874;25.320;2022-12-26T16:25:51;97999.47;;;8.38;100.00
20115;BME280;10218;42.874;25.320;2022-12-26T16:28:33;98005.31;;;8.23;100.00
20115;BME280;10218;42.874;25.320;2022-12-26T16:31:02;98008.69;;;8.25;100.00
20115;BME280;10218;42.874;25.320;2022-12-26T16:33:33;98008.50;;;8.07;100.00
20115;BME280;10218;42.874;25.320;2022-12-26T16:36:03;98006.28;;;8.12;100.00
20115;BME280;10218;42.874;25.320;2022-12-26T16:38:31;97999.25;;;8.01;100.00
20115;BME280;10218;42.874;25.320;2022-12-26T16:40:58;98001.41;;;8.27;100.00
20115;BME280;10218;42.874;25.320;2022-12-26T16:43:32;98006.25;;;7.72;100.00
20115;BME280;10218;42.874;25.320;2022-12-26T16:46:05;97994.56;;;7.84;100.00
20115;BME280;10218;42.874;25.320;2022-12-26T16:48:33;97990.66;;;7.58;100.00
20115;BME280;10218;42.874;25.320;2022-12-26T16:51:04;97995.00;;;7.59;100.00
20115;BME280;10218;42.874;25.320;2022-12-26T16:59:12;98002.81;;;7.51;100.00
20115;BME280;10218;42.874;25.320;2022-12-26T17:01:48;97997.22;;;7.54;100.00
20115;BME280;10218;42.874;25.320;2022-12-26T17:04:19;97992.97;;;7.42;100.00
20115;BME280;10218;42.874;25.320;2022-12-26T17:07:08;97991.78;;;7.25;100.00
20115;BME280;10218;42.874;25.320;2022-12-26T17:09:45;97985.31;;;7.48;100.00
20115;BME280;10218;42.874;25.320;2022-12-26T17:12:24;97982.31;;;7.42;100.00
20115;BME280;10218;42.874;25.320;2022-12-26T17:14:53;97987.31;;;7.25;100.00
20115;BME280;10218;42.874;25.320;2022-12-26T17:22:55;97991.72;;;7.15;100.00
20115;BME280;10218;42.874;25.320;2022-12-26T17:25:30;97966.22;;;7.13;100.00
20115;BME280;10218;42.874;25.320;2022-12-26T17:30:42;97981.03;;;6.85;100.00
20115;BME280;10218;42.874;25.320;2022-12-26T17:33:25;97975.97;;;7.03;100.00
20115;BME280;10218;42.874;25.320;2022-12-26T17:36:04;97976.66;;;7.46;100.00
20115;BME280;10218;42.874;25.320;2022-12-26T17:39:09;97973.75;;;7.59;100.00